Time;durP1;ratioP1;P1;durP2;ratioP2;P2;SDS_P1;SDS_P2;PMS_P1;PMS_P2;Temp;Humidity;BMP_temperature;BMP_pressure;BME280_temperature;BME280_humidity;BME280_pressure;Samples;Min_cycle;Max_cycle;Signal;HPM_P1;HPM_P2
2022/02/07 00:01:58;;;;;;;8.28;3.70;;;;;;;3.29;64.11;100098.06;1738314;82;21573;-62
2022/02/07 00:04:59;;;;;;;6.75;3.90;;;;;;;3.26;64.20;100094.77;1737822;81;21188;-61
2022/02/07 00:08:08;;;;;;;10.08;5.17;;;;;;;3.25;64.29;100090.36;1737885;82;21502;-62
2022/02/07 00:11:13;;;;;;;9.13;4.62;;;;;;;3.26;64.22;100082.11;1738712;82;21397;-62
2022/02/07 00:14:18;;;;;;;9.45;4.17;;;;;;;3.26;64.21;100074.00;1739572;81;21207;-61
2022/02/07 00:17:25;;;;;;;9.13;4.30;;;;;;;3.28;64.24;100071.15;1737954;81;21247;-62
2022/02/07 00:20:31;;;;;;;8.03;4.58;;;;;;;3.27;64.26;100064.88;1738311;81;21212;-63
2022/02/07 00:23:39;;;;;;;8.80;4.58;;;;;;;3.28;64.37;100060.33;1741240;82;21752;-63
2022/02/07 00:26:45;;;;;;;9.73;4.83;;;;;;;3.32;64.48;100058.56;1737883;82;21365;-62
2022/02/07 00:29:50;;;;;;;9.90;5.33;;;;;;;3.34;64.52;100052.52;1735762;82;21358;-63
2022/02/07 00:32:55;;;;;;;8.90;4.90;;;;;;;3.39;64.55;100053.45;1737863;82;21357;-62
2022/02/07 00:36:01;;;;;;;12.23;5.12;;;;;;;3.39;64.51;100044.86;1738364;81;21454;-62
2022/02/07 00:39:15;;;;;;;8.73;4.65;;;;;;;3.40;64.54;100042.50;1739099;81;21365;-62
2022/02/07 00:42:29;;;;;;;10.20;4.90;;;;;;;3.42;64.54;100039.66;1737929;82;21201;-62
2022/02/07 00:45:42;;;;;;;9.18;5.33;;;;;;;3.39;64.58;100031.33;1738693;81;21297;-62
2022/02/07 00:48:47;;;;;;;9.20;5.20;;;;;;;3.38;64.73;100026.89;1743746;81;21232;-61
2022/02/07 00:51:54;;;;;;;9.10;6.00;;;;;;;3.37;64.85;100025.69;1743719;82;21211;-62
2022/02/07 00:55:01;;;;;;;10.95;5.80;;;;;;;3.34;64.95;100008.38;1743551;81;21207;-62
2022/02/07 00:58:08;;;;;;;11.53;6.28;;;;;;;3.31;65.10;100006.83;1743977;81;21345;-63
2022/02/07 01:01:13;;;;;;;12.58;5.90;;;;;;;3.31;65.32;100006.83;1734170;81;21886;-61
2022/02/07 01:04:19;;;;;;;13.58;5.78;;;;;;;3.31;65.48;99993.30;1744089;81;21318;-61
2022/02/07 01:07:30;;;;;;;13.83;6.53;;;;;;;3.26;65.64;99994.20;1743370;82;21816;-61
2022/02/07 01:10:49;;;;;;;7.95;5.62;;;;;;;3.23;65.84;99991.78;1742700;81;22255;-61
2022/02/07 01:14:10;;;;;;;14.27;6.97;;;;;;;3.22;66.03;99990.05;1743741;81;21401;-62
2022/02/07 01:57:13;;;;;;;14.38;7.55;;;;;;;3.14;68.60;99922.81;1744103;82;21334;-62
2022/02/07 02:00:20;;;;;;;12.60;8.08;;;;;;;3.13;68.71;99916.54;1743778;81;21326;-62
2022/02/07 02:03:25;;;;;;;14.05;8.35;;;;;;;3.11;68.87;99913.11;1743470;82;21850;-62
2022/02/07 02:06:32;;;;;;;13.62;8.75;;;;;;;3.11;69.02;99904.16;1743587;82;21342;-61
2022/02/07 02:09:41;;;;;;;17.20;9.10;;;;;;;3.09;69.12;99904.31;1742888;81;21421;-62
2022/02/07 02:13:01;;;;;;;10.70;7.72;;;;;;;3.06;69.27;99901.86;1728929;82;21357;-62
2022/02/07 02:16:16;;;;;;;12.55;8.23;;;;;;;3.03;69.52;99899.44;1744328;80;21409;-61
2022/02/07 02:32:56;;;;;;;15.38;8.18;;;;;;;2.95;70.27;99891.17;1730614;82;21339;-62
2022/02/07 02:36:15;;;;;;;13.72;8.83;;;;;;;2.91;70.51;99894.67;1730268;81;21402;-61
2022/02/07 02:45:34;;;;;;;13.55;9.10;;;;;;;2.89;71.11;99884.98;1743865;81;21369;-63
2022/02/07 02:48:44;;;;;;;15.83;9.20;;;;;;;2.91;71.34;99886.56;1743315;82;21318;-63
2022/02/07 02:51:52;;;;;;;17.75;9.08;;;;;;;2.93;71.41;99874.27;1737909;82;21252;-63
2022/02/07 02:54:58;;;;;;;13.65;9.23;;;;;;;2.94;71.52;99863.79;1737860;81;21319;-61
2022/02/07 02:58:04;;;;;;;14.10;9.50;;;;;;;2.97;71.67;99875.67;1738548;82;21345;-62
2022/02/07 03:01:12;;;;;;;15.03;8.83;;;;;;;3.00;71.63;99875.39;1738187;82;21326;-62
2022/02/07 03:04:20;;;;;;;13.50;9.33;;;;;;;3.00;71.68;99873.55;1737973;81;21239;-62
2022/02/07 03:07:25;;;;;;;17.15;9.50;;;;;;;3.01;71.76;99867.66;1737902;82;21349;-62
2022/02/07 03:10:42;;;;;;;13.83;9.18;;;;;;;3.03;71.80;99862.94;1728025;81;21361;-62
2022/02/07 03:16:59;;;;;;;15.53;9.28;;;;;;;3.00;71.86;99864.09;1737980;82;21246;-61
2022/02/07 03:20:04;;;;;;;14.98;9.20;;;;;;;3.01;71.98;99859.55;1737942;81;21365;-63
2022/02/07 03:23:10;;;;;;;16.10;10.00;;;;;;;2.99;71.98;99843.95;1737967;82;21215;-62
2022/02/07 03:26:17;;;;;;;15.58;9.30;;;;;;;2.98;72.03;99849.02;1738242;82;21870;-62
2022/02/07 03:29:22;;;;;;;12.28;9.30;;;;;;;2.96;72.03;99851.00;1737832;81;21220;-61
2022/02/07 03:32:29;;;;;;;14.73;9.45;;;;;;;2.89;72.16;99843.08;1737988;82;21378;-62
2022/02/07 03:35:38;;;;;;;13.98;9.00;;;;;;;2.80;72.19;99841.23;1737818;81;21450;-61
2022/02/07 03:38:47;;;;;;;15.43;10.15;;;;;;;2.76;72.49;99838.44;1737976;81;21405;-63
2022/02/07 03:41:53;;;;;;;18.73;9.30;;;;;;;2.72;72.64;99837.02;1737599;82;21354;-61
2022/02/07 03:44:59;;;;;;;13.98;8.93;;;;;;;2.71;72.80;99829.92;1737794;81;21397;-61
2022/02/07 03:48:08;;;;;;;16.45;9.35;;;;;;;2.73;72.91;99831.96;1738055;82;21894;-62
2022/02/07 03:51:14;;;;;;;15.30;9.08;;;;;;;2.72;72.87;99828.42;1740500;78;21337;-62
2022/02/07 03:54:20;;;;;;;15.08;8.80;;;;;;;2.65;72.92;99831.80;1743211;81;21898;-62
2022/02/07 03:57:25;;;;;;;14.50;8.70;;;;;;;2.64;73.12;99829.62;1743087;82;21365;-62
2022/02/07 04:00:33;;;;;;;14.38;9.60;;;;;;;2.67;73.25;99821.72;1743223;81;21380;-62
2022/02/07 04:03:41;;;;;;;16.50;8.35;;;;;;;2.68;73.30;99828.86;1735773;81;21440;-62
2022/02/07 04:06:49;;;;;;;14.00;8.38;;;;;;;2.70;73.30;99840.35;1743080;82;21196;-65
2022/02/07 04:09:57;;;;;;;16.02;8.45;;;;;;;2.69;73.30;99830.55;1741337;81;21789;-65
2022/02/07 04:13:05;;;;;;;13.20;8.40;;;;;;;2.69;73.40;99830.55;1742742;82;21365;-66
2022/02/07 04:16:13;;;;;;;14.05;8.65;;;;;;;2.69;73.48;99815.20;1743087;82;21287;-65
2022/02/07 04:19:29;;;;;;;17.17;9.68;;;;;;;2.70;73.42;99809.28;1744999;81;21259;-66
2022/02/07 04:22:31;;;;;;;23.07;11.68;;;;;;;2.67;73.32;99804.16;1741877;82;21863;-66
2022/02/07 04:25:41;;;;;;;22.90;11.28;;;;;;;2.60;73.40;99801.68;1694594;82;21262;-66
2022/02/07 04:28:47;;;;;;;25.00;12.82;;;;;;;2.57;73.59;99793.86;1742948;81;21860;-66
2022/02/07 04:31:53;;;;;;;21.17;11.08;;;;;;;2.54;73.67;99801.72;1718311;82;21231;-67
2022/02/07 04:34:59;;;;;;;21.80;11.63;;;;;;;2.48;73.77;99802.77;1743165;81;21227;-66
2022/02/07 04:38:05;;;;;;;22.10;11.53;;;;;;;2.41;73.89;99798.42;1742613;82;21334;-66
2022/02/07 04:41:12;;;;;;;23.47;11.73;;;;;;;2.33;74.07;99790.67;1742934;82;21252;-65
2022/02/07 04:44:25;;;;;;;25.40;13.40;;;;;;;2.27;74.34;99785.80;1743921;81;21781;-65
2022/02/07 04:48:10;;;;;;;24.65;14.20;;;;;;;2.21;74.46;99780.95;1744130;81;21322;-66
2022/02/07 04:57:43;;;;;;;35.40;17.45;;;;;;;1.79;75.21;99784.80;1736314;82;21405;-65
2022/02/07 05:00:51;;;;;;;28.12;17.25;;;;;;;1.70;75.70;99786.44;1738042;81;21918;-65
2022/02/07 05:03:57;;;;;;;31.27;18.02;;;;;;;1.68;76.11;99780.84;1728432;81;21216;-65
2022/02/07 05:13:57;;;;;;;35.10;19.98;;;;;;;1.78;77.11;99764.17;1736250;82;21330;-66
2022/02/07 05:17:07;;;;;;;36.48;20.37;;;;;;;1.80;77.37;99770.30;1746046;81;21847;-66
2022/02/07 05:20:19;;;;;;;49.13;25.08;;;;;;;1.83;77.55;99771.38;1736607;82;21244;-66
2022/02/07 05:23:38;;;;;;;42.67;24.47;;;;;;;1.82;77.70;99766.98;1736119;82;21211;-65
2022/02/07 05:26:46;;;;;;;41.05;25.00;;;;;;;1.75;78.05;99763.11;1737425;81;21203;-66
2022/02/07 05:29:58;;;;;;;44.48;23.42;;;;;;;1.73;78.43;99761.06;1735947;82;21216;-66
2022/02/07 05:33:05;;;;;;;46.77;27.27;;;;;;;1.68;78.67;99756.08;1736534;82;21284;-66
2022/02/07 05:36:16;;;;;;;46.55;23.42;;;;;;;1.70;79.00;99748.68;1736242;81;21910;-65
2022/02/07 05:39:43;;;;;;;34.63;21.75;;;;;;;1.73;79.27;99752.97;1739009;82;21205;-67
2022/02/07 05:42:59;;;;;;;34.90;20.48;;;;;;;1.82;79.55;99772.37;1737371;81;21189;-67
2022/02/07 05:46:23;;;;;;;32.42;19.87;;;;;;;2.05;79.71;99763.94;1829132;76;22214;-65
2022/02/07 05:49:35;;;;;;;35.28;21.70;;;;;;;2.10;79.77;99760.34;1742066;80;21325;-66
2022/02/07 05:52:48;;;;;;;35.80;21.27;;;;;;;2.21;79.53;99756.17;1704097;83;21689;-67
2022/02/07 05:55:57;;;;;;;30.80;20.48;;;;;;;2.28;79.42;99757.83;1741922;81;21272;-66
2022/02/07 05:59:14;;;;;;;41.50;22.13;;;;;;;2.34;79.40;99752.73;1768375;79;21233;-65
2022/02/07 06:02:24;;;;;;;30.85;20.97;;;;;;;2.43;79.37;99765.88;1767740;81;21232;-66
2022/02/07 06:05:50;;;;;;;31.45;19.75;;;;;;;2.52;79.29;99768.59;1733236;82;21215;-65
2022/02/07 06:09:03;;;;;;;42.00;22.77;;;;;;;2.64;79.18;99749.06;1729040;82;21986;-66
2022/02/07 06:12:26;;;;;;;37.05;23.42;;;;;;;2.68;78.95;99750.50;1760592;80;21279;-66
2022/02/07 06:15:37;;;;;;;45.00;27.62;;;;;;;2.77;78.86;99750.99;1767934;81;21272;-68
2022/02/07 06:18:49;;;;;;;37.80;24.32;;;;;;;2.92;78.79;99749.06;1755778;79;22252;-65
2022/02/07 06:21:57;;;;;;;37.00;23.30;;;;;;;3.04;78.56;99741.14;1768170;80;21765;-65
2022/02/07 06:25:04;;;;;;;36.55;21.30;;;;;;;3.13;78.18;99742.14;1739777;81;21585;-66
2022/02/07 06:28:09;;;;;;;35.65;21.75;;;;;;;3.19;77.98;99733.96;1742007;81;21785;-66
2022/02/07 06:31:17;;;;;;;33.65;21.90;;;;;;;3.28;77.82;99733.94;1761682;80;21201;-65
2022/02/07 06:34:24;;;;;;;31.75;19.95;;;;;;;3.33;77.42;99722.16;1764986;80;21208;-64
2022/02/07 06:37:29;;;;;;;32.20;20.17;;;;;;;3.36;77.30;99734.56;1767982;80;21182;-64
2022/02/07 06:40:36;;;;;;;35.33;22.42;;;;;;;3.38;77.11;99729.34;1768245;80;21240;-65
2022/02/07 06:43:41;;;;;;;32.67;21.20;;;;;;;3.42;76.90;99724.01;1766887;80;21181;-64
2022/02/07 06:46:47;;;;;;;35.38;22.32;;;;;;;3.43;76.76;99723.00;1740232;80;21260;-63
2022/02/07 06:49:59;;;;;;;32.75;21.57;;;;;;;3.51;76.66;99717.70;1760769;79;21261;-66
2022/02/07 06:53:04;;;;;;;37.70;23.80;;;;;;;3.58;76.56;99720.19;1763472;80;22265;-64
2022/02/07 06:56:14;;;;;;;36.28;23.47;;;;;;;3.66;76.27;99709.97;1765389;80;21233;-65
2022/02/07 06:59:41;;;;;;;39.25;23.20;;;;;;;3.73;76.05;99717.33;1760122;80;21221;-67
2022/02/07 07:02:54;;;;;;;32.45;23.42;;;;;;;3.78;75.74;99706.92;1763635;80;21695;-65
2022/02/07 07:06:01;;;;;;;37.50;23.75;;;;;;;3.84;75.59;99710.38;1774001;78;21184;-64
2022/02/07 07:09:12;;;;;;;40.48;24.90;;;;;;;3.87;75.39;99709.24;1752015;79;21205;-63
2022/02/07 07:12:20;;;;;;;42.20;25.02;;;;;;;3.89;75.31;99706.72;1758102;81;21601;-63
2022/02/07 07:15:37;;;;;;;41.73;23.55;;;;;;;3.89;75.05;99704.02;1767875;80;21221;-64
2022/02/07 07:18:43;;;;;;;44.77;26.75;;;;;;;3.87;75.13;99694.34;1767775;80;21351;-67
2022/02/07 07:21:55;;;;;;;48.42;26.55;;;;;;;3.79;74.73;99696.43;1763814;80;21986;-65
2022/02/07 07:25:03;;;;;;;44.80;25.72;;;;;;;3.75;75.03;99695.04;1758561;80;21212;-63
2022/02/07 07:28:14;;;;;;;44.03;27.67;;;;;;;3.81;75.06;99687.67;1768358;80;21204;-65
2022/02/07 07:31:24;;;;;;;;;;;;;;;3.79;74.73;99686.95;1772298;80;21197;-60
2022/02/07 07:34:30;;;;;;;42.45;28.00;;;;;;;3.83;75.01;99685.67;1739992;81;20212;-64
2022/02/07 07:37:38;;;;;;;49.05;28.85;;;;;;;3.92;74.96;99692.02;1738906;82;21620;-65
2022/02/07 07:40:44;;;;;;;47.05;26.65;;;;;;;3.96;74.72;99698.36;1741801;80;21209;-66
2022/02/07 07:43:53;;;;;;;49.03;27.50;;;;;;;4.05;74.57;99685.26;1750835;81;21242;-64
2022/02/07 07:47:19;;;;;;;49.88;28.57;;;;;;;4.07;74.08;99681.05;1754323;81;21229;-64
2022/02/07 07:50:40;;;;;;;41.33;25.50;;;;;;;4.05;74.03;99679.84;1739032;81;21232;-64
2022/02/07 07:54:14;;;;;;;47.30;28.27;;;;;;;4.08;73.83;99664.64;1749620;79;21169;-64
2022/02/07 08:03:58;;;;;;;43.25;24.23;;;;;;;4.48;73.07;99659.66;1768906;79;21860;-63
2022/02/07 08:07:22;;;;;;;40.25;23.07;;;;;;;4.63;72.23;99669.94;1715016;82;21255;-64
2022/02/07 08:11:15;;;;;;;40.92;23.07;;;;;;;4.70;71.52;99672.36;1702391;83;21269;-64
2022/02/07 08:13:40;;;;;;;36.13;23.12;;;;;;;4.77;71.08;99670.73;1691483;83;21231;-64
2022/02/07 08:16:52;;;;;;;35.00;22.05;;;;;;;4.86;70.60;99669.79;1692222;84;21193;-65
2022/02/07 08:19:57;;;;;;;39.48;22.20;;;;;;;4.96;70.07;99652.44;1693271;83;21624;-66
2022/02/07 08:23:03;;;;;;;39.67;23.15;;;;;;;4.96;69.26;99658.36;1716318;83;21913;-64
2022/02/07 08:26:11;;;;;;;39.38;23.02;;;;;;;4.95;69.19;99663.44;1700904;83;21200;-65
2022/02/07 08:29:17;;;;;;;41.65;23.30;;;;;;;4.99;69.05;99662.11;1691905;83;21209;-65
2022/02/07 08:32:24;;;;;;;36.90;21.95;;;;;;;5.02;68.91;99657.72;1706931;83;21225;-64
2022/02/07 08:35:30;;;;;;;37.75;22.98;;;;;;;5.03;68.72;99656.70;1767374;80;21390;-64
2022/02/07 08:38:36;;;;;;;32.90;21.77;;;;;;;5.13;68.96;99660.16;1739901;82;21312;-65
2022/02/07 08:41:41;;;;;;;31.70;20.88;;;;;;;5.27;68.82;99662.29;1760949;81;21236;-65
2022/02/07 08:44:48;;;;;;;34.75;21.93;;;;;;;5.38;68.53;99660.66;1760416;80;21707;-63
2022/02/07 08:47:57;;;;;;;34.45;21.25;;;;;;;5.45;68.03;99656.31;1751394;80;21265;-63
2022/02/07 08:51:03;;;;;;;33.78;20.20;;;;;;;5.52;67.76;99658.20;1737452;82;21256;-65
2022/02/07 08:54:17;;;;;;;29.40;19.82;;;;;;;5.54;67.13;99657.55;1737509;82;21363;-64
2022/02/07 08:57:37;;;;;;;36.73;20.40;;;;;;;5.54;66.93;99663.48;1739287;81;21268;-63
2022/02/07 09:04:28;;;;;;;34.08;19.40;;;;;;;5.58;66.71;99665.70;1739189;81;21343;-63
2022/02/07 09:07:09;;;;;;;30.90;19.62;;;;;;;5.66;66.66;99660.84;1739115;82;21208;-64
2022/02/07 09:10:03;;;;;;;37.10;20.35;;;;;;;5.67;66.40;99659.81;1738851;81;21815;-63
2022/02/07 09:13:13;;;;;;;30.57;19.25;;;;;;;5.68;66.34;99664.22;1761279;81;21370;-63
2022/02/07 09:16:29;;;;;;;30.37;19.52;;;;;;;5.70;66.22;99674.42;1724743;82;21244;-64
2022/02/07 09:19:34;;;;;;;34.38;19.73;;;;;;;5.76;66.21;99679.20;1723782;82;21200;-64
2022/02/07 09:22:40;;;;;;;28.20;18.98;;;;;;;5.85;66.08;99670.12;1695869;83;21866;-64
2022/02/07 09:25:45;;;;;;;28.87;17.77;;;;;;;5.90;65.71;99663.17;1758535;81;21402;-64
2022/02/07 09:28:51;;;;;;;22.07;15.70;;;;;;;5.88;65.40;99661.65;1770049;79;21220;-64
2022/02/07 09:32:00;;;;;;;27.82;17.02;;;;;;;5.75;65.54;99657.14;1769669;81;21733;-64
2022/02/07 09:35:05;;;;;;;25.32;16.30;;;;;;;5.52;65.90;99648.70;1752951;81;21236;-65
2022/02/07 09:38:10;;;;;;;22.65;14.85;;;;;;;5.30;66.63;99635.70;1768510;80;21526;-64
2022/02/07 09:41:18;;;;;;;21.82;14.95;;;;;;;5.10;67.33;99624.73;1764963;80;21699;-65
2022/02/07 09:44:22;;;;;;;21.52;13.80;;;;;;;4.93;68.10;99620.18;1757827;81;21280;-64
2022/02/07 09:47:28;;;;;;;21.40;14.05;;;;;;;4.84;68.83;99605.37;1766906;81;21217;-64
2022/02/07 09:50:34;;;;;;;20.45;13.30;;;;;;;4.88;69.41;99600.00;1766159;79;21230;-64
2022/02/07 09:53:39;;;;;;;20.62;13.98;;;;;;;4.97;69.56;99594.47;1769883;81;21789;-65
2022/02/07 09:56:46;;;;;;;21.20;14.47;;;;;;;5.08;69.45;99612.32;1770713;80;21214;-65
2022/02/07 09:59:53;;;;;;;25.77;14.63;;;;;;;5.09;69.24;99618.11;1770185;79;21252;-64
2022/02/07 10:03:23;;;;;;;23.05;13.80;;;;;;;5.10;69.17;99611.66;1767793;80;21304;-64
2022/02/07 10:16:30;;;;;;;25.80;14.15;;;;;;;5.44;68.72;99626.95;1762457;81;21358;-66
2022/02/07 10:19:29;;;;;;;21.62;13.43;;;;;;;5.69;68.20;99627.94;1733038;81;21200;-64
2022/02/07 10:39:29;;;;;;;18.40;11.22;;;;;;;5.59;67.06;99592.77;1716212;81;21781;-64
2022/02/07 10:45:33;;;;;;;23.52;13.25;;;;;;;5.37;68.10;99605.56;1767170;80;21234;-63
2022/02/07 10:48:48;;;;;;;21.25;12.65;;;;;;;5.40;68.49;99605.73;1766648;81;21272;-67
2022/02/07 10:51:54;;;;;;;17.62;12.15;;;;;;;5.45;68.69;99612.39;1762397;80;21621;-63
2022/02/07 10:54:59;;;;;;;21.68;13.83;;;;;;;5.60;68.93;99603.95;1769359;79;21833;-63
2022/02/07 10:58:08;;;;;;;20.00;12.45;;;;;;;5.71;68.59;99595.52;1769325;80;21239;-64
2022/02/07 11:01:25;;;;;;;21.10;12.50;;;;;;;5.62;68.43;99602.44;1738558;82;21252;-64
2022/02/07 11:04:33;;;;;;;20.62;12.93;;;;;;;5.48;68.69;99601.70;1763453;79;21797;-64
2022/02/07 11:07:32;;;;;;;21.80;13.22;;;;;;;5.42;69.31;99606.43;1766089;80;21213;-65
2022/02/07 11:11:04;;;;;;;21.42;14.45;;;;;;;5.44;69.55;99604.41;1746033;81;21770;-65
2022/02/07 11:14:08;;;;;;;22.37;14.95;;;;;;;5.41;69.64;99597.92;1764238;80;21233;-64
2022/02/07 11:17:22;;;;;;;26.10;16.52;;;;;;;5.44;70.02;99596.27;1768288;81;21278;-64
2022/02/07 11:21:00;;;;;;;29.05;17.73;;;;;;;5.33;70.02;99593.31;1768439;79;21209;-63
2022/02/07 11:24:03;;;;;;;25.50;15.18;;;;;;;5.22;70.48;99592.73;1768711;80;21165;-63
2022/02/07 11:26:49;;;;;;;28.70;18.07;;;;;;;5.14;70.91;99591.36;1766366;81;21718;-64
2022/02/07 11:29:58;;;;;;;28.62;16.93;;;;;;;5.01;71.23;99585.52;1750417;81;21855;-64
2022/02/07 11:33:06;;;;;;;24.43;15.65;;;;;;;4.85;71.88;99580.84;1768480;80;21589;-63
2022/02/07 11:36:11;;;;;;;24.32;14.63;;;;;;;4.75;72.59;99584.64;1768342;81;21718;-63
2022/02/07 11:39:29;;;;;;;25.15;15.90;;;;;;;4.67;73.15;99580.52;1740404;80;21757;-64
2022/02/07 11:42:38;;;;;;;24.57;16.60;;;;;;;4.69;73.76;99573.09;1768892;81;21726;-60
2022/02/07 11:46:09;;;;;;;25.15;15.43;;;;;;;4.79;74.20;99575.20;1768049;81;21263;-62
2022/02/07 11:49:22;;;;;;;24.47;15.30;;;;;;;4.91;74.43;99560.36;1752525;79;21212;-63
2022/02/07 11:52:40;;;;;;;25.30;15.23;;;;;;;5.02;74.32;99568.22;1760460;79;21207;-62
2022/02/07 11:56:05;;;;;;;21.70;14.87;;;;;;;4.98;74.15;99547.88;1768620;80;21217;-60
2022/02/07 11:59:15;;;;;;;22.93;13.88;;;;;;;4.73;74.12;99546.85;1721067;81;21205;-62
2022/02/07 12:02:19;;;;;;;22.60;14.20;;;;;;;4.49;74.78;99539.90;1721285;83;21825;-61
2022/02/07 12:05:28;;;;;;;22.00;13.85;;;;;;;4.32;75.44;99526.75;1702819;82;21242;-61
2022/02/07 12:08:37;;;;;;;23.27;14.43;;;;;;;4.23;76.15;99521.42;1768676;80;21193;-61
2022/02/07 12:11:55;;;;;;;19.32;12.73;;;;;;;4.19;76.67;99510.05;1753802;81;21196;-62
2022/02/07 12:15:32;;;;;;;21.30;13.43;;;;;;;4.24;77.10;99528.04;1768686;80;21484;-61
2022/02/07 12:18:34;;;;;;;21.60;12.45;;;;;;;4.22;77.17;99525.98;1767107;81;21188;-61
2022/02/07 12:21:40;;;;;;;21.52;13.15;;;;;;;4.10;77.62;99524.53;1757302;81;21189;-61
2022/02/07 12:25:08;;;;;;;23.25;13.72;;;;;;;4.05;77.96;99518.73;1765543;79;21533;-61
2022/02/07 12:28:17;;;;;;;24.18;13.38;;;;;;;4.09;78.28;99526.88;1730867;82;21192;-62
2022/02/07 12:31:24;;;;;;;19.70;14.03;;;;;;;4.08;78.43;99527.89;1758727;81;22182;-62
2022/02/07 12:34:32;;;;;;;20.62;13.00;;;;;;;4.02;78.55;99528.52;1767656;81;21287;-61
2022/02/07 12:37:41;;;;;;;24.12;14.50;;;;;;;3.95;78.83;99535.55;1770319;80;21252;-62
2022/02/07 12:40:49;;;;;;;17.87;12.55;;;;;;;3.89;79.08;99528.55;1751418;81;21221;-62
2022/02/07 12:43:57;;;;;;;20.60;13.83;;;;;;;3.88;79.37;99537.68;1762061;81;21284;-61
2022/02/07 12:47:03;;;;;;;24.85;15.43;;;;;;;3.89;79.58;99538.02;1752247;80;21581;-62
2022/02/07 12:50:22;;;;;;;23.55;14.65;;;;;;;4.01;79.88;99530.86;1740303;81;21355;-62
2022/02/07 12:53:32;;;;;;;22.27;13.32;;;;;;;4.11;79.86;99521.30;1732833;81;21204;-61
2022/02/07 12:56:39;;;;;;;24.15;15.23;;;;;;;4.17;79.77;99519.35;1760763;80;21260;-61
2022/02/07 13:00:01;;;;;;;23.95;13.93;;;;;;;4.22;79.60;99523.27;1741103;81;22145;-62
2022/02/07 13:03:19;;;;;;;23.75;14.87;;;;;;;4.22;79.36;99521.92;1760416;81;21430;-61
2022/02/07 13:06:27;;;;;;;23.32;14.68;;;;;;;4.25;79.33;99524.83;1759196;80;21169;-62
2022/02/07 13:09:51;;;;;;;25.12;16.00;;;;;;;4.26;79.15;99515.20;1770222;79;21765;-61
2022/02/07 13:16:12;;;;;;;27.55;15.88;;;;;;;4.36;79.09;99510.52;1769934;80;21181;-63
2022/02/07 13:19:25;;;;;;;26.30;15.20;;;;;;;4.44;79.09;99505.65;1768680;79;21760;-61
2022/02/07 13:22:31;;;;;;;22.87;14.57;;;;;;;4.49;79.03;99505.53;1767041;81;21204;-63
2022/02/07 13:25:50;;;;;;;23.20;14.18;;;;;;;4.54;78.89;99507.27;1768128;80;21673;-61
2022/02/07 13:29:04;;;;;;;22.82;15.28;;;;;;;4.57;78.89;99506.95;1767039;79;21185;-61
2022/02/07 13:32:17;;;;;;;21.65;14.85;;;;;;;4.57;78.66;99516.43;1758804;80;21221;-61
2022/02/07 13:35:27;;;;;;;28.65;17.65;;;;;;;4.57;78.77;99516.43;1768092;80;21797;-61
2022/02/07 13:38:32;;;;;;;26.57;16.07;;;;;;;4.53;78.77;99517.74;1740104;82;21205;-60
2022/02/07 13:41:48;;;;;;;26.97;16.70;;;;;;;4.47;78.85;99513.48;1761908;81;21336;-63
2022/02/07 13:45:01;;;;;;;27.22;17.00;;;;;;;4.43;79.19;99511.59;1770119;80;21229;-63
2022/02/07 13:48:07;;;;;;;25.80;16.82;;;;;;;4.43;79.51;99517.51;1766924;80;21727;-63
2022/02/07 13:51:14;;;;;;;23.12;16.02;;;;;;;4.40;79.70;99518.69;1764644;80;21181;-63
2022/02/07 13:54:19;;;;;;;30.88;17.02;;;;;;;4.34;79.93;99520.65;1770864;79;21212;-62
2022/02/07 13:57:27;;;;;;;30.92;18.67;;;;;;;4.30;80.16;99510.29;1761657;80;22074;-63
2022/02/07 14:00:41;;;;;;;29.27;18.82;;;;;;;4.25;80.54;99504.00;1733030;82;21268;-62
2022/02/07 14:03:57;;;;;;;27.32;17.45;;;;;;;4.22;80.89;99499.39;1766526;80;21200;-63
2022/02/07 14:07:17;;;;;;;29.25;17.05;;;;;;;4.18;81.20;99495.31;1753766;80;21249;-61
2022/02/07 14:10:25;;;;;;;27.30;16.40;;;;;;;4.20;81.39;99490.59;1746548;81;21301;-64
2022/02/07 14:13:32;;;;;;;26.75;17.42;;;;;;;4.18;81.53;99483.98;1767736;81;21563;-63
2022/02/07 14:16:36;;;;;;;26.57;16.97;;;;;;;4.17;81.64;99474.14;1761480;81;21193;-64
2022/02/07 14:19:59;;;;;;;26.12;16.80;;;;;;;4.17;81.73;99468.72;1768408;79;21776;-63
2022/02/07 14:22:59;;;;;;;26.82;15.88;;;;;;;4.18;81.81;99464.16;1767709;81;21201;-63
2022/02/07 14:26:10;;;;;;;24.35;16.55;;;;;;;4.17;81.90;99447.05;1737085;81;21227;-63
2022/02/07 14:29:14;;;;;;;32.33;17.92;;;;;;;4.17;82.10;99444.34;1758091;79;21796;-63
2022/02/07 14:32:22;;;;;;;29.70;17.92;;;;;;;4.19;82.09;99447.75;1744625;81;21738;-62
2022/02/07 14:35:27;;;;;;;30.48;17.98;;;;;;;4.21;82.21;99457.08;1737440;81;21220;-62
2022/02/07 14:38:33;;;;;;;27.25;16.97;;;;;;;4.23;82.31;99484.33;1739732;82;21204;-61
2022/02/07 14:41:39;;;;;;;30.55;18.25;;;;;;;4.28;82.37;99486.07;1752329;81;21570;-63
2022/02/07 14:44:59;;;;;;;30.32;18.62;;;;;;;4.31;82.24;99493.88;1749031;80;21312;-62
2022/02/07 14:47:53;;;;;;;26.87;17.80;;;;;;;4.26;82.07;99482.69;1701965;83;21762;-63
2022/02/07 14:50:58;;;;;;;31.45;18.77;;;;;;;4.23;82.15;99492.45;1737861;81;21208;-62
2022/02/07 14:54:05;;;;;;;27.73;18.20;;;;;;;4.21;82.21;99486.38;1743476;80;21260;-62
2022/02/07 14:57:11;;;;;;;25.55;16.60;;;;;;;4.22;82.32;99490.77;1729998;82;21258;-62
2022/02/07 15:00:23;;;;;;;31.65;18.02;;;;;;;4.25;82.43;99477.44;1715777;83;21240;-63
2022/02/07 15:03:28;;;;;;;32.15;18.42;;;;;;;4.24;82.36;99484.70;1675208;85;21585;-63
2022/02/07 15:06:32;;;;;;;30.10;18.55;;;;;;;4.20;82.33;99481.94;1704570;83;21616;-63
2022/02/07 15:09:37;;;;;;;34.75;19.98;;;;;;;4.19;82.49;99480.25;1737271;81;21275;-61
2022/02/07 15:12:42;;;;;;;34.38;19.90;;;;;;;4.19;82.51;99478.91;1739148;81;21216;-62
2022/02/07 15:15:48;;;;;;;34.27;22.20;;;;;;;4.17;82.56;99469.25;1737743;81;21813;-63
2022/02/07 15:18:54;;;;;;;42.98;24.00;;;;;;;4.16;82.61;99466.17;1750454;81;21180;-62
2022/02/07 15:22:03;;;;;;;43.95;25.48;;;;;;;4.13;82.63;99467.35;1769109;80;21720;-63
2022/02/07 15:25:16;;;;;;;43.48;25.48;;;;;;;4.12;82.71;99459.39;1755220;80;21221;-62
2022/02/07 15:28:17;;;;;;;35.48;22.58;;;;;;;4.10;82.71;99455.48;1730821;83;21212;-63
2022/02/07 15:31:30;;;;;;;39.48;23.30;;;;;;;4.06;82.79;99446.48;1731063;83;21690;-64
2022/02/07 15:34:32;;;;;;;38.42;21.97;;;;;;;4.05;82.95;99437.50;1731417;83;21291;-63
2022/02/07 15:37:39;;;;;;;37.40;21.82;;;;;;;4.07;83.08;99441.41;1731567;83;21229;-63
2022/02/07 15:40:47;;;;;;;42.75;23.73;;;;;;;4.09;83.20;99453.77;1732054;83;21217;-62
2022/02/07 15:43:53;;;;;;;40.63;23.92;;;;;;;4.13;83.26;99459.23;1733021;83;21200;-62
2022/02/07 15:46:59;;;;;;;38.30;21.60;;;;;;;4.17;83.26;99441.64;1747738;81;21197;-63
2022/02/07 15:50:15;;;;;;;43.20;24.27;;;;;;;4.17;83.10;99428.63;1767845;81;21209;-64
2022/02/07 15:53:21;;;;;;;38.83;22.55;;;;;;;4.14;83.02;99428.42;1768819;80;21245;-65
2022/02/07 15:56:30;;;;;;;33.28;21.33;;;;;;;4.09;83.04;99442.93;1768801;79;21338;-65
2022/02/07 15:59:37;;;;;;;35.98;23.83;;;;;;;4.07;83.16;99438.20;1768242;80;21352;-63
2022/02/07 16:02:48;;;;;;;37.70;22.05;;;;;;;4.08;83.25;99448.02;1769361;80;21893;-63
2022/02/07 16:05:49;;;;;;;38.90;24.27;;;;;;;4.07;83.25;99447.68;1767909;80;21216;-63
2022/02/07 16:08:55;;;;;;;39.75;25.88;;;;;;;4.06;83.31;99441.06;1732737;83;21819;-63
2022/02/07 16:12:09;;;;;;;43.60;26.00;;;;;;;4.08;83.49;99437.18;1766947;81;21281;-63
2022/02/07 16:15:11;;;;;;;41.15;26.77;;;;;;;4.09;83.59;99433.98;1769206;79;22022;-63
2022/02/07 16:18:18;;;;;;;46.23;29.15;;;;;;;4.10;83.60;99436.53;1769166;80;21236;-63
2022/02/07 16:21:23;;;;;;;44.55;28.32;;;;;;;4.10;83.62;99431.11;1768707;81;21303;-63
2022/02/07 16:24:29;;;;;;;43.13;24.85;;;;;;;4.07;83.63;99423.31;1769279;80;21758;-62
2022/02/07 16:27:35;;;;;;;46.50;27.73;;;;;;;4.08;83.71;99427.70;1762512;80;21193;-64
2022/02/07 16:30:42;;;;;;;44.25;27.82;;;;;;;4.07;83.74;99424.66;1769909;80;21260;-62
2022/02/07 16:33:49;;;;;;;43.95;25.68;;;;;;;4.07;83.87;99423.80;1734575;82;21208;-63
2022/02/07 16:36:56;;;;;;;46.85;27.25;;;;;;;4.04;83.94;99427.66;1770079;80;21186;-63
2022/02/07 16:40:02;;;;;;;45.85;28.85;;;;;;;3.96;84.01;99434.39;1734015;82;21200;-63
2022/02/07 16:43:08;;;;;;;44.18;27.15;;;;;;;3.93;84.15;99435.20;1782155;80;21371;-63